Time;durP1;ratioP1;P1;durP2;ratioP2;P2;SDS_P1;SDS_P2;PMS_P1;PMS_P2;Temp;Humidity;BMP_temperature;BMP_pressure;BME280_temperature;BME280_humidity;BME280_pressure;Samples;Min_cycle;Max_cycle;Signal;HPM_P1;HPM_P2
2023/06/16 00:01:05;;;;;;;10.38;6.45;;;;;;;;;;4862129;28;20043;-74
2023/06/16 00:03:33;;;;;;;10.43;6.30;;;;;;;;;;4864027;28;20613;-75
2023/06/16 00:06:13;;;;;;;8.50;6.13;;;;;;;;;;4864625;28;20517;-76
2023/06/16 00:08:45;;;;;;;9.10;6.10;;;;;;;;;;4876749;28;20509;-75
2023/06/16 00:11:17;;;;;;;13.18;6.78;;;;;;;;;;4878491;28;20099;-75
2023/06/16 00:13:45;;;;;;;7.82;6.63;;;;;;;;;;4864156;28;20426;-74
2023/06/16 00:16:12;;;;;;;8.98;6.57;;;;;;;;;;4862575;28;20041;-75
2023/06/16 00:18:43;;;;;;;12.55;6.97;;;;;;;;;;4878849;28;20262;-76
2023/06/16 00:21:09;;;;;;;9.15;6.32;;;;;;;;;;4862873;28;22165;-74
2023/06/16 00:23:34;;;;;;;10.57;7.07;;;;;;;;;;4863249;28;20040;-75
2023/06/16 00:25:59;;;;;;;12.80;6.82;;;;;;;;;;4862952;28;20123;-75
2023/06/16 00:28:25;;;;;;;12.40;7.88;;;;;;;;;;4878132;28;20066;-76
2023/06/16 00:30:50;;;;;;;10.57;7.43;;;;;;;;;;4864184;28;20123;-75
2023/06/16 00:33:17;;;;;;;14.07;7.55;;;;;;;;;;4864570;28;20573;-75
2023/06/16 00:35:43;;;;;;;11.40;8.30;;;;;;;;;;4869380;28;20052;-74
2023/06/16 00:38:08;;;;;;;10.65;7.80;;;;;;;;;;4862973;28;20162;-75
2023/06/16 00:40:33;;;;;;;10.05;7.68;;;;;;;;;;4863574;28;20274;-73
2023/06/16 00:43:02;;;;;;;10.35;7.90;;;;;;;;;;4863873;28;20494;-74
2023/06/16 00:45:30;;;;;;;13.02;8.20;;;;;;;;;;4863582;28;20072;-74
2023/06/16 00:47:56;;;;;;;12.27;8.23;;;;;;;;;;4862673;28;20068;-75
2023/06/16 00:50:23;;;;;;;10.27;8.10;;;;;;;;;;4862861;28;20128;-75
2023/06/16 00:52:51;;;;;;;12.70;8.77;;;;;;;;;;4864258;28;20160;-74
2023/06/16 00:55:19;;;;;;;14.15;7.88;;;;;;;;;;4865650;28;20053;-75
2023/06/16 00:57:44;;;;;;;15.02;8.27;;;;;;;;;;4866260;28;20041;-74
2023/06/16 01:00:11;;;;;;;10.68;8.32;;;;;;;;;;4881927;28;20095;-75
2023/06/16 01:02:37;;;;;;;13.82;8.60;;;;;;;;;;4868595;28;20040;-75
2023/06/16 01:05:05;;;;;;;11.68;8.38;;;;;;;;;;4866161;28;20064;-74
2023/06/16 01:07:34;;;;;;;11.75;8.13;;;;;;;;;;4881559;28;20043;-75
2023/06/16 01:10:04;;;;;;;11.43;8.85;;;;;;;;;;4867077;28;20127;-73
2023/06/16 01:12:49;;;;;;;10.95;8.18;;;;;;;;;;4868008;28;20045;-74
2023/06/16 01:15:17;;;;;;;13.82;8.40;;;;;;;;;;4869192;28;20090;-75
2023/06/16 01:17:44;;;;;;;11.70;8.23;;;;;;;;;;4866894;28;20113;-74
2023/06/16 01:20:32;;;;;;;10.02;8.20;;;;;;;;;;4882037;28;20557;-75
2023/06/16 01:23:16;;;;;;;9.85;8.13;;;;;;;;;;4848922;28;20068;-76
2023/06/16 01:25:44;;;;;;;12.02;8.23;;;;;;;;;;4881487;28;20036;-74
2023/06/16 01:28:10;;;;;;;12.30;8.00;;;;;;;;;;4866341;28;20040;-73
2023/06/16 01:30:42;;;;;;;12.73;8.40;;;;;;;;;;4867618;28;20041;-73
2023/06/16 01:33:09;;;;;;;11.73;8.00;;;;;;;;;;4868023;28;20136;-74
2023/06/16 01:35:35;;;;;;;11.70;8.52;;;;;;;;;;4867566;28;20091;-72
2023/06/16 01:38:00;;;;;;;15.05;8.88;;;;;;;;;;4869305;28;20664;-76
2023/06/16 01:40:26;;;;;;;10.10;8.32;;;;;;;;;;4864165;28;20852;-74
2023/06/16 01:42:57;;;;;;;11.80;8.38;;;;;;;;;;4880774;28;20040;-74
2023/06/16 01:45:22;;;;;;;11.32;7.57;;;;;;;;;;4866159;28;20107;-74
2023/06/16 01:47:48;;;;;;;11.77;8.40;;;;;;;;;;4867291;28;20337;-74
2023/06/16 01:50:14;;;;;;;11.00;8.60;;;;;;;;;;4863611;28;20047;-73
2023/06/16 01:52:39;;;;;;;11.40;8.30;;;;;;;;;;4875810;28;20137;-74
2023/06/16 01:55:05;;;;;;;13.68;7.97;;;;;;;;;;4865888;28;20135;-73
2023/06/16 01:57:32;;;;;;;11.50;8.27;;;;;;;;;;4865862;28;20041;-75
2023/06/16 02:00:08;;;;;;;9.38;7.95;;;;;;;;;;4864790;28;20044;-73
2023/06/16 02:02:34;;;;;;;10.13;7.95;;;;;;;;;;4880504;28;20059;-74
2023/06/16 02:05:03;;;;;;;13.90;8.80;;;;;;;;;;4865540;28;20064;-76
2023/06/16 02:07:31;;;;;;;11.90;8.25;;;;;;;;;;4866585;28;20045;-74
2023/06/16 02:09:58;;;;;;;9.38;8.32;;;;;;;;;;4864774;28;20051;-74
2023/06/16 02:12:26;;;;;;;12.10;8.18;;;;;;;;;;4863826;28;20051;-74
2023/06/16 02:14:53;;;;;;;12.48;8.30;;;;;;;;;;4864900;28;20442;-75
2023/06/16 02:17:19;;;;;;;12.80;8.05;;;;;;;;;;4866367;28;20040;-74
2023/06/16 02:19:44;;;;;;;12.13;7.78;;;;;;;;;;4880022;28;20128;-74
2023/06/16 02:22:09;;;;;;;12.55;9.18;;;;;;;;;;4864454;28;20055;-75
2023/06/16 02:24:37;;;;;;;10.77;8.35;;;;;;;;;;4865517;28;20041;-75
2023/06/16 02:27:03;;;;;;;11.38;8.52;;;;;;;;;;4865813;28;20047;-75
2023/06/16 02:29:29;;;;;;;12.38;8.70;;;;;;;;;;4862876;28;20032;-74
2023/06/16 02:31:54;;;;;;;10.93;8.63;;;;;;;;;;4866238;28;20037;-74
2023/06/16 02:34:22;;;;;;;12.43;9.10;;;;;;;;;;4864655;28;20040;-74
2023/06/16 02:36:47;;;;;;;12.48;8.48;;;;;;;;;;4864240;28;20088;-74
2023/06/16 02:39:13;;;;;;;11.15;8.52;;;;;;;;;;4865980;28;20044;-74
2023/06/16 02:41:38;;;;;;;11.23;8.98;;;;;;;;;;4878911;28;20055;-74
2023/06/16 02:44:06;;;;;;;11.57;8.80;;;;;;;;;;4865935;28;20041;-73
2023/06/16 02:46:31;;;;;;;11.15;8.90;;;;;;;;;;4865356;28;20062;-70
2023/06/16 02:48:57;;;;;;;12.45;9.15;;;;;;;;;;4865162;28;20047;-73
2023/06/16 02:51:25;;;;;;;11.95;9.02;;;;;;;;;;4865108;28;20052;-74
2023/06/16 02:53:51;;;;;;;16.50;8.75;;;;;;;;;;4866087;28;20040;-74
2023/06/16 02:56:17;;;;;;;9.48;8.27;;;;;;;;;;4862563;28;20033;-73
2023/06/16 02:58:43;;;;;;;10.52;9.05;;;;;;;;;;4880470;28;20715;-74
2023/06/16 03:01:08;;;;;;;11.25;8.68;;;;;;;;;;4864719;28;20032;-74
2023/06/16 03:03:35;;;;;;;12.93;9.00;;;;;;;;;;4878933;28;20123;-73
2023/06/16 03:06:00;;;;;;;11.68;8.10;;;;;;;;;;4863876;28;20047;-73
2023/06/16 03:08:26;;;;;;;9.32;7.82;;;;;;;;;;4865059;28;20037;-74
2023/06/16 03:10:54;;;;;;;13.27;8.23;;;;;;;;;;4865809;28;20041;-74
2023/06/16 03:13:19;;;;;;;11.18;8.05;;;;;;;;;;4866620;28;20082;-76
2023/06/16 03:15:45;;;;;;;12.93;8.10;;;;;;;;;;4866079;28;20049;-73
2023/06/16 03:18:11;;;;;;;11.15;7.68;;;;;;;;;;4880374;28;20411;-73
2023/06/16 03:20:37;;;;;;;10.80;7.68;;;;;;;;;;4865752;28;20052;-73
2023/06/16 03:23:02;;;;;;;12.93;8.00;;;;;;;;;;4881328;28;20052;-73
2023/06/16 03:25:28;;;;;;;10.07;8.10;;;;;;;;;;4865851;28;20045;-73
2023/06/16 03:27:56;;;;;;;11.73;7.45;;;;;;;;;;4880277;28;20127;-73
2023/06/16 03:30:21;;;;;;;9.85;7.55;;;;;;;;;;4866494;28;20041;-73
2023/06/16 03:32:47;;;;;;;9.23;7.53;;;;;;;;;;4865349;28;20490;-73
2023/06/16 03:35:12;;;;;;;9.00;7.07;;;;;;;;;;4879892;28;20124;-73
2023/06/16 03:37:38;;;;;;;10.85;7.50;;;;;;;;;;4880642;28;21122;-73
2023/06/16 03:40:05;;;;;;;10.27;7.63;;;;;;;;;;4864435;28;20048;-73
2023/06/16 03:42:31;;;;;;;9.80;7.47;;;;;;;;;;4865972;28;20033;-74
2023/06/16 03:44:57;;;;;;;9.30;7.10;;;;;;;;;;4880734;28;20930;-74
2023/06/16 03:47:23;;;;;;;8.63;6.63;;;;;;;;;;4863755;28;20033;-73
2023/06/16 03:49:48;;;;;;;9.82;6.97;;;;;;;;;;4865460;28;20074;-74
2023/06/16 03:52:16;;;;;;;8.85;6.70;;;;;;;;;;4880801;28;20052;-74
2023/06/16 03:54:41;;;;;;;9.77;6.53;;;;;;;;;;4866595;28;20044;-74
2023/06/16 03:57:06;;;;;;;9.82;6.53;;;;;;;;;;4865831;28;20063;-74
2023/06/16 03:59:35;;;;;;;10.23;6.68;;;;;;;;;;4866648;28;20075;-74
2023/06/16 04:02:06;;;;;;;10.27;6.60;;;;;;;;;;4882094;28;20036;-74
2023/06/16 04:04:31;;;;;;;10.23;6.65;;;;;;;;;;4864608;28;20076;-74
2023/06/16 04:06:57;;;;;;;9.57;6.72;;;;;;;;;;4866477;28;20182;-74
2023/06/16 04:09:22;;;;;;;10.38;6.60;;;;;;;;;;4865611;28;20036;-74
2023/06/16 04:11:47;;;;;;;12.00;6.80;;;;;;;;;;4864568;28;20167;-74
2023/06/16 04:14:13;;;;;;;10.65;6.55;;;;;;;;;;4879131;28;20053;-73
2023/06/16 04:16:40;;;;;;;9.00;6.45;;;;;;;;;;4866199;28;20056;-73
2023/06/16 04:19:06;;;;;;;7.65;6.30;;;;;;;;;;4864691;28;20048;-74
2023/06/16 04:21:32;;;;;;;8.73;6.40;;;;;;;;;;4865319;28;20068;-74
2023/06/16 04:23:57;;;;;;;10.05;6.68;;;;;;;;;;4944992;28;20554;-75
2023/06/16 04:26:26;;;;;;;8.13;6.55;;;;;;;;;;4865651;28;20039;-74
2023/06/16 04:28:55;;;;;;;6.45;5.55;;;;;;;;;;4864241;28;20033;-73
2023/06/16 04:31:28;;;;;;;9.85;6.55;;;;;;;;;;4863754;28;20037;-72
2023/06/16 04:33:56;;;;;;;7.95;6.57;;;;;;;;;;4865713;28;21306;-73
2023/06/16 04:36:21;;;;;;;10.18;5.72;;;;;;;;;;4866231;28;20049;-73
2023/06/16 04:38:47;;;;;;;8.05;6.13;;;;;;;;;;4863931;28;20790;-73
2023/06/16 04:41:12;;;;;;;9.57;6.20;;;;;;;;;;4865149;28;20052;-73
2023/06/16 04:43:37;;;;;;;9.80;6.72;;;;;;;;;;4865091;28;20033;-74
2023/06/16 04:46:02;;;;;;;11.68;6.65;;;;;;;;;;4866306;28;20552;-74
2023/06/16 04:48:31;;;;;;;9.45;7.18;;;;;;;;;;4865343;28;20996;-73
2023/06/16 04:50:57;;;;;;;9.98;7.60;;;;;;;;;;4865899;28;20033;-76
2023/06/16 04:53:22;;;;;;;10.77;6.90;;;;;;;;;;4865054;28;20167;-75
2023/06/16 04:55:48;;;;;;;12.13;7.47;;;;;;;;;;4864892;28;20037;-75
2023/06/16 04:58:13;;;;;;;10.73;7.20;;;;;;;;;;4863036;28;20047;-64
2023/06/16 05:00:41;;;;;;;9.55;7.20;;;;;;;;;;4865195;28;20041;-65
2023/06/16 05:03:06;;;;;;;10.13;7.20;;;;;;;;;;4864374;28;20087;-64
2023/06/16 05:05:32;;;;;;;12.85;7.63;;;;;;;;;;4864444;28;20049;-65
2023/06/16 05:07:57;;;;;;;10.40;7.00;;;;;;;;;;4864353;28;20084;-67
2023/06/16 05:10:23;;;;;;;12.77;7.25;;;;;;;;;;4863695;28;20044;-64
2023/06/16 05:12:48;;;;;;;9.60;6.70;;;;;;;;;;4862696;28;20098;-64
2023/06/16 05:15:13;;;;;;;14.35;6.68;;;;;;;;;;4863497;28;20049;-64
2023/06/16 05:17:39;;;;;;;9.80;5.60;;;;;;;;;;4859210;28;20044;-65
2023/06/16 05:20:07;;;;;;;10.77;6.20;;;;;;;;;;4863792;28;20115;-70
2023/06/16 05:22:34;;;;;;;8.23;6.18;;;;;;;;;;4862427;28;20087;-69
2023/06/16 05:25:00;;;;;;;8.10;5.53;;;;;;;;;;4861019;28;20662;-70
2023/06/16 05:27:25;;;;;;;11.18;5.85;;;;;;;;;;4922405;28;20057;-71
2023/06/16 05:29:51;;;;;;;10.38;5.88;;;;;;;;;;4877554;28;20099;-68
2023/06/16 05:32:16;;;;;;;7.47;5.40;;;;;;;;;;4862942;28;20040;-70
2023/06/16 05:34:42;;;;;;;9.73;5.15;;;;;;;;;;4863194;28;20052;-70
2023/06/16 05:37:07;;;;;;;7.20;5.22;;;;;;;;;;4859410;28;20037;-70
2023/06/16 05:39:32;;;;;;;9.35;5.00;;;;;;;;;;4847001;28;20107;-69
2023/06/16 05:41:57;;;;;;;8.88;4.80;;;;;;;;;;4864058;28;20044;-69
2023/06/16 05:44:23;;;;;;;11.20;4.80;;;;;;;;;;4877713;28;20791;-70
2023/06/16 05:46:48;;;;;;;7.35;4.72;;;;;;;;;;4862893;28;20040;-70
2023/06/16 05:49:13;;;;;;;9.25;5.10;;;;;;;;;;4864771;28;20771;-71
2023/06/16 05:51:38;;;;;;;9.73;4.88;;;;;;;;;;4864676;28;20048;-71
2023/06/16 05:54:04;;;;;;;10.10;5.47;;;;;;;;;;4865142;28;20471;-71
2023/06/16 05:56:29;;;;;;;9.20;4.85;;;;;;;;;;4865139;28;20069;-69
2023/06/16 05:58:55;;;;;;;8.48;4.82;;;;;;;;;;4865174;28;20091;-70
2023/06/16 06:01:20;;;;;;;11.40;5.30;;;;;;;;;;4865671;28;20033;-71
2023/06/16 06:03:46;;;;;;;13.00;4.80;;;;;;;;;;4865774;29;20043;-70
2023/06/16 06:06:12;;;;;;;7.78;4.10;;;;;;;;;;4865326;28;21033;-70
2023/06/16 06:08:37;;;;;;;9.18;4.57;;;;;;;;;;4865430;28;20801;-69
2023/06/16 06:11:05;;;;;;;5.22;3.80;;;;;;;;;;4865676;28;20040;-69
2023/06/16 06:13:30;;;;;;;9.70;3.95;;;;;;;;;;4845977;28;20029;-69
2023/06/16 06:15:55;;;;;;;12.43;4.38;;;;;;;;;;4864761;28;20088;-69
2023/06/16 06:18:20;;;;;;;7.07;3.70;;;;;;;;;;4865259;28;20041;-68
2023/06/16 06:20:49;;;;;;;5.22;3.90;;;;;;;;;;4861081;28;20106;-69
2023/06/16 06:23:14;;;;;;;6.28;3.80;;;;;;;;;;4862879;28;20048;-68
2023/06/16 06:25:42;;;;;;;8.27;3.60;;;;;;;;;;4861049;28;20040;-69
2023/06/16 06:28:08;;;;;;;8.60;3.72;;;;;;;;;;4863491;28;20045;-69
2023/06/16 06:30:36;;;;;;;5.40;3.47;;;;;;;;;;4862572;28;20036;-69
2023/06/16 06:33:02;;;;;;;6.28;3.63;;;;;;;;;;4862578;28;20048;-70
2023/06/16 06:35:29;;;;;;;5.20;3.67;;;;;;;;;;4877262;28;20053;-73
2023/06/16 06:37:54;;;;;;;8.52;3.42;;;;;;;;;;4866177;28;21462;-73
2023/06/16 06:40:20;;;;;;;5.88;3.60;;;;;;;;;;4878937;28;20052;-72
2023/06/16 06:42:46;;;;;;;9.68;3.40;;;;;;;;;;4865298;28;20045;-73
2023/06/16 06:45:13;;;;;;;6.55;3.40;;;;;;;;;;4863796;28;20627;-74
2023/06/16 06:47:41;;;;;;;4.50;3.45;;;;;;;;;;4864405;28;20048;-73
2023/06/16 06:50:06;;;;;;;8.27;3.65;;;;;;;;;;4864453;28;20032;-75
2023/06/16 06:52:31;;;;;;;5.70;3.53;;;;;;;;;;4864766;28;20063;-74
2023/06/16 06:54:57;;;;;;;9.63;3.70;;;;;;;;;;4865551;28;20075;-75
2023/06/16 06:57:22;;;;;;;6.90;3.50;;;;;;;;;;4864499;28;20037;-73
2023/06/16 06:59:50;;;;;;;6.43;3.65;;;;;;;;;;4867022;28;20793;-73
2023/06/16 07:02:16;;;;;;;7.20;3.50;;;;;;;;;;4866178;28;20044;-73
2023/06/16 07:04:42;;;;;;;5.47;3.60;;;;;;;;;;4867042;28;20311;-73
2023/06/16 07:07:08;;;;;;;6.85;3.30;;;;;;;;;;4871994;28;20041;-73
2023/06/16 07:09:34;;;;;;;6.55;2.95;;;;;;;;;;4886373;28;20083;-73
2023/06/16 07:11:59;;;;;;;4.93;2.63;;;;;;;;;;4885662;28;20052;-72
2023/06/16 07:14:26;;;;;;;4.07;2.78;;;;;;;;;;4883051;28;20083;-74
2023/06/16 07:16:51;;;;;;;5.70;3.30;;;;;;;;;;4899028;28;20111;-74
2023/06/16 07:19:17;;;;;;;5.15;2.90;;;;;;;;;;4884381;28;20036;-74
2023/06/16 07:21:44;;;;;;;3.75;2.72;;;;;;;;;;4904417;28;20041;-75
2023/06/16 07:24:09;;;;;;;6.00;2.45;;;;;;;;;;4888044;28;20021;-74
2023/06/16 07:26:35;;;;;;;5.03;2.75;;;;;;;;;;4887994;28;20039;-75
2023/06/16 07:29:00;;;;;;;6.45;2.70;;;;;;;;;;4899969;28;20599;-73
2023/06/16 07:31:27;;;;;;;5.30;2.75;;;;;;;;;;4882207;28;20036;-71
2023/06/16 07:33:53;;;;;;;3.75;2.60;;;;;;;;;;4885496;28;20114;-73
2023/06/16 07:36:18;;;;;;;6.28;2.72;;;;;;;;;;4882456;28;20100;-72
2023/06/16 07:38:46;;;;;;;6.43;2.53;;;;;;;;;;4880620;28;20041;-72
2023/06/16 07:41:11;;;;;;;8.57;2.63;;;;;;;;;;4880545;28;20043;-72
2023/06/16 07:43:36;;;;;;;6.35;2.65;;;;;;;;;;4898645;28;20036;-72
2023/06/16 07:46:02;;;;;;;7.40;2.60;;;;;;;;;;4869651;28;20040;-73
2023/06/16 07:48:27;;;;;;;3.40;2.50;;;;;;;;;;4865774;28;20041;-73
2023/06/16 07:50:53;;;;;;;9.43;3.38;;;;;;;;;;4865819;28;20076;-73
2023/06/16 07:53:18;;;;;;;8.68;2.90;;;;;;;;;;4866787;28;20976;-73
2023/06/16 07:55:44;;;;;;;11.07;3.30;;;;;;;;;;4880819;28;20052;-73
2023/06/16 07:58:09;;;;;;;5.93;2.90;;;;;;;;;;4866035;28;20604;-72
2023/06/16 08:00:34;;;;;;;5.80;2.95;;;;;;;;;;4866571;28;20032;-73
2023/06/16 08:03:02;;;;;;;7.57;3.47;;;;;;;;;;4865553;29;20044;-72
2023/06/16 08:05:27;;;;;;;8.25;3.50;;;;;;;;;;4866644;28;20099;-75
2023/06/16 08:07:53;;;;;;;6.05;3.10;;;;;;;;;;4864578;28;20041;-73
2023/06/16 08:10:20;;;;;;;9.43;3.83;;;;;;;;;;4865893;28;21728;-72
2023/06/16 08:12:51;;;;;;;9.13;3.58;;;;;;;;;;4864095;28;20069;-72
2023/06/16 08:15:17;;;;;;;5.75;3.50;;;;;;;;;;4864750;28;20050;-73
2023/06/16 08:17:45;;;;;;;5.88;3.42;;;;;;;;;;4865052;28;20095;-73
2023/06/16 08:20:10;;;;;;;6.03;3.58;;;;;;;;;;4865212;28;20044;-72
2023/06/16 08:22:36;;;;;;;6.90;4.28;;;;;;;;;;4865939;28;20064;-73
2023/06/16 08:25:02;;;;;;;5.55;4.25;;;;;;;;;;4863463;28;20095;-72
2023/06/16 08:27:27;;;;;;;6.65;4.50;;;;;;;;;;4865132;29;20064;-72
2023/06/16 08:29:53;;;;;;;5.90;3.97;;;;;;;;;;4864816;28;20052;-72
2023/06/16 08:32:19;;;;;;;7.05;4.57;;;;;;;;;;4866252;28;20579;-72
2023/06/16 08:34:44;;;;;;;13.73;4.65;;;;;;;;;;4864653;28;20053;-73
2023/06/16 08:37:09;;;;;;;5.35;4.25;;;;;;;;;;4867115;28;20683;-72
2023/06/16 08:39:35;;;;;;;8.98;4.00;;;;;;;;;;4863730;28;20131;-72
2023/06/16 08:42:01;;;;;;;4.72;3.42;;;;;;;;;;4865275;28;20107;-72
2023/06/16 08:44:28;;;;;;;7.00;3.33;;;;;;;;;;4865124;28;20984;-73
2023/06/16 08:46:57;;;;;;;6.75;3.85;;;;;;;;;;4866538;28;20040;-72
2023/06/16 08:49:23;;;;;;;5.45;4.45;;;;;;;;;;4866426;28;20045;-73
2023/06/16 08:51:51;;;;;;;7.85;4.28;;;;;;;;;;4865428;28;20041;-71
2023/06/16 08:54:20;;;;;;;6.90;3.90;;;;;;;;;;4865866;28;21001;-71
2023/06/16 08:56:46;;;;;;;4.93;4.03;;;;;;;;;;4878738;28;20037;-71
2023/06/16 08:59:12;;;;;;;7.75;3.55;;;;;;;;;;4866112;28;20044;-71
2023/06/16 09:01:39;;;;;;;4.20;3.60;;;;;;;;;;4862779;28;20052;-71
2023/06/16 09:04:08;;;;;;;6.05;4.10;;;;;;;;;;4865660;28;20041;-72
2023/06/16 09:06:34;;;;;;;7.28;4.32;;;;;;;;;;4861977;28;20066;-71
2023/06/16 09:09:00;;;;;;;3.88;3.35;;;;;;;;;;4863180;28;20102;-71
2023/06/16 09:11:28;;;;;;;5.10;3.72;;;;;;;;;;4862835;28;20036;-71
2023/06/16 09:13:56;;;;;;;5.85;3.90;;;;;;;;;;4866482;28;20033;-71
2023/06/16 09:16:22;;;;;;;4.25;3.38;;;;;;;;;;4879539;28;20051;-71
2023/06/16 09:18:49;;;;;;;7.95;3.60;;;;;;;;;;4866156;28;20037;-71
2023/06/16 09:21:22;;;;;;;4.47;3.42;;;;;;;;;;4850749;28;20036;-71
2023/06/16 09:23:54;;;;;;;4.38;3.70;;;;;;;;;;4865779;28;20067;-71
2023/06/16 09:26:19;;;;;;;5.28;3.63;;;;;;;;;;4864775;28;20045;-71
2023/06/16 09:28:46;;;;;;;6.88;3.20;;;;;;;;;;4864341;28;20473;-70
2023/06/16 09:31:12;;;;;;;4.70;3.28;;;;;;;;;;4861504;28;20071;-72
2023/06/16 09:33:38;;;;;;;5.35;3.83;;;;;;;;;;4879039;28;20041;-71
2023/06/16 09:36:03;;;;;;;6.78;4.40;;;;;;;;;;4863327;28;20060;-70
2023/06/16 09:38:35;;;;;;;5.38;4.35;;;;;;;;;;4877628;28;21108;-69
2023/06/16 09:41:07;;;;;;;5.88;4.13;;;;;;;;;;4862190;28;20394;-70
2023/06/16 09:43:33;;;;;;;7.78;4.60;;;;;;;;;;4862332;28;20136;-70
2023/06/16 09:45:58;;;;;;;8.75;4.88;;;;;;;;;;4863598;28;20067;-70
2023/06/16 09:48:25;;;;;;;6.97;4.93;;;;;;;;;;4864426;28;20048;-69
2023/06/16 09:50:51;;;;;;;7.93;5.05;;;;;;;;;;4864625;28;20037;-70
2023/06/16 09:53:19;;;;;;;7.28;4.68;;;;;;;;;;4863719;28;20044;-70
2023/06/16 09:55:44;;;;;;;6.20;4.72;;;;;;;;;;4859561;28;20136;-69
2023/06/16 09:58:10;;;;;;;6.00;3.90;;;;;;;;;;4862020;28;20051;-71
2023/06/16 10:00:36;;;;;;;5.70;4.38;;;;;;;;;;4877426;28;20068;-70
2023/06/16 10:03:02;;;;;;;4.38;3.97;;;;;;;;;;4861200;28;20398;-69
2023/06/16 10:05:28;;;;;;;4.78;3.83;;;;;;;;;;4860744;28;20053;-70
2023/06/16 10:07:55;;;;;;;4.45;3.90;;;;;;;;;;4860281;28;20445;-72
2023/06/16 10:10:27;;;;;;;5.22;3.80;;;;;;;;;;4862554;28;20098;-68
2023/06/16 10:12:54;;;;;;;5.65;3.65;;;;;;;;;;4865065;28;20069;-72
2023/06/16 10:15:22;;;;;;;4.13;3.50;;;;;;;;;;4865574;28;20049;-73
2023/06/16 10:17:49;;;;;;;5.80;3.80;;;;;;;;;;4866869;28;20512;-80
2023/06/16 10:20:16;;;;;;;6.32;3.40;;;;;;;;;;4865305;28;20124;-73
2023/06/16 10:22:42;;;;;;;7.57;3.42;;;;;;;;;;4865654;28;20045;-75
2023/06/16 10:25:07;;;;;;;4.90;3.60;;;;;;;;;;4865612;28;20172;-74
2023/06/16 10:27:33;;;;;;;6.20;3.17;;;;;;;;;;4866109;28;20049;-72
2023/06/16 10:30:01;;;;;;;6.10;3.47;;;;;;;;;;4866349;28;20437;-70
2023/06/16 10:32:26;;;;;;;5.70;3.35;;;;;;;;;;4865267;28;20032;-69
2023/06/16 10:34:56;;;;;;;5.70;3.20;;;;;;;;;;4863863;28;20661;-71
2023/06/16 10:37:25;;;;;;;4.53;2.70;;;;;;;;;;4927388;28;20037;-71
2023/06/16 10:39:54;;;;;;;4.97;2.95;;;;;;;;;;4865295;28;20045;-66
2023/06/16 10:42:20;;;;;;;5.55;3.15;;;;;;;;;;4865095;28;20049;-71
2023/06/16 10:44:45;;;;;;;6.55;3.13;;;;;;;;;;4866071;28;20553;-70
2023/06/16 10:47:10;;;;;;;5.68;3.05;;;;;;;;;;4866259;28;20099;-70
2023/06/16 10:49:46;;;;;;;3.95;2.58;;;;;;;;;;4865403;28;21198;-72
2023/06/16 10:52:15;;;;;;;4.72;2.60;;;;;;;;;;4864446;28;20041;-73
2023/06/16 10:54:44;;;;;;;6.63;2.83;;;;;;;;;;4863353;28;20059;-74
2023/06/16 10:57:12;;;;;;;5.03;2.50;;;;;;;;;;4864817;28;20043;-72
2023/06/16 10:59:56;;;;;;;3.55;2.35;;;;;;;;;;4863981;28;20160;-73
2023/06/16 11:02:23;;;;;;;4.95;2.80;;;;;;;;;;4879735;28;20037;-72
2023/06/16 11:05:07;;;;;;;3.92;2.45;;;;;;;;;;4862099;28;20044;-72
2023/06/16 11:07:36;;;;;;;3.95;2.60;;;;;;;;;;4880764;28;20047;-70
2023/06/16 11:10:02;;;;;;;4.20;3.22;;;;;;;;;;4862464;28;20037;-70
2023/06/16 11:12:27;;;;;;;4.35;3.00;;;;;;;;;;4879769;28;20041;-71
2023/06/16 11:14:55;;;;;;;4.18;2.90;;;;;;;;;;4865221;28;20126;-73
2023/06/16 11:17:20;;;;;;;4.45;2.80;;;;;;;;;;4866752;28;20852;-71
2023/06/16 11:19:50;;;;;;;3.53;2.88;;;;;;;;;;4864995;28;20076;-70
2023/06/16 11:22:15;;;;;;;6.32;2.67;;;;;;;;;;4862337;28;20953;-73
2023/06/16 11:24:41;;;;;;;4.40;2.70;;;;;;;;;;4863673;28;20037;-69
2023/06/16 11:27:07;;;;;;;3.20;2.40;;;;;;;;;;4879193;28;20706;-73
2023/06/16 11:29:36;;;;;;;5.10;2.80;;;;;;;;;;4877844;28;20603;-71
2023/06/16 11:32:04;;;;;;;6.72;2.70;;;;;;;;;;4865398;28;20048;-71
2023/06/16 11:34:29;;;;;;;4.68;2.80;;;;;;;;;;4864185;28;20052;-71
2023/06/16 11:36:54;;;;;;;4.57;2.75;;;;;;;;;;4864469;28;20036;-72
2023/06/16 11:39:20;;;;;;;3.70;2.50;;;;;;;;;;4879759;28;20116;-72
2023/06/16 11:41:45;;;;;;;5.82;2.30;;;;;;;;;;4864205;28;20920;-73
2023/06/16 11:44:16;;;;;;;4.63;2.50;;;;;;;;;;4863953;28;20055;-68
2023/06/16 11:46:41;;;;;;;3.55;2.30;;;;;;;;;;4866168;28;20114;-72
2023/06/16 11:49:07;;;;;;;4.55;2.33;;;;;;;;;;4863495;28;20036;-70
2023/06/16 11:51:33;;;;;;;4.32;2.22;;;;;;;;;;4879657;28;20782;-70
2023/06/16 11:54:01;;;;;;;3.58;2.30;;;;;;;;;;4863437;28;20092;-70
2023/06/16 11:56:27;;;;;;;3.60;2.63;;;;;;;;;;4864974;29;20486;-73
2023/06/16 11:58:53;;;;;;;5.68;2.70;;;;;;;;;;4866547;28;20120;-73
2023/06/16 12:01:18;;;;;;;5.50;2.58;;;;;;;;;;4864883;29;20037;-74
2023/06/16 12:03:45;;;;;;;4.25;2.35;;;;;;;;;;4846170;28;20481;-68
2023/06/16 12:06:10;;;;;;;7.18;2.50;;;;;;;;;;4865224;28;20052;-70
2023/06/16 12:08:46;;;;;;;4.35;2.60;;;;;;;;;;4876222;28;20052;-71
2023/06/16 12:11:13;;;;;;;4.30;2.78;;;;;;;;;;4861981;28;20522;-72
2023/06/16 12:13:39;;;;;;;3.72;2.28;;;;;;;;;;4862277;28;20046;-70
2023/06/16 12:16:06;;;;;;;4.93;2.47;;;;;;;;;;4863546;28;20774;-72
2023/06/16 12:18:32;;;;;;;5.38;2.60;;;;;;;;;;4862138;28;20379;-74
2023/06/16 12:20:57;;;;;;;4.35;2.40;;;;;;;;;;4861357;28;20071;-69
2023/06/16 12:23:22;;;;;;;4.72;2.40;;;;;;;;;;4863720;28;20708;-72
2023/06/16 12:25:48;;;;;;;3.58;1.95;;;;;;;;;;4923587;28;20115;-72
2023/06/16 12:28:18;;;;;;;3.05;2.00;;;;;;;;;;4860622;28;20478;-73
2023/06/16 12:30:44;;;;;;;5.38;2.25;;;;;;;;;;4861086;28;20213;-66
2023/06/16 12:33:10;;;;;;;4.15;2.20;;;;;;;;;;4864300;28;20418;-72
2023/06/16 12:35:35;;;;;;;2.63;1.80;;;;;;;;;;4861124;28;20136;-71
2023/06/16 12:38:01;;;;;;;3.92;2.03;;;;;;;;;;4862430;28;20041;-70
2023/06/16 12:40:31;;;;;;;3.30;1.80;;;;;;;;;;4861359;28;20418;-72
2023/06/16 12:42:56;;;;;;;3.00;1.92;;;;;;;;;;4861972;28;20745;-70
2023/06/16 12:45:22;;;;;;;4.55;1.83;;;;;;;;;;4862053;28;20045;-68
2023/06/16 12:47:47;;;;;;;3.75;1.80;;;;;;;;;;4862413;28;20037;-73
2023/06/16 12:50:12;;;;;;;3.55;1.80;;;;;;;;;;4860122;28;20505;-70
2023/06/16 12:52:37;;;;;;;3.75;1.70;;;;;;;;;;4860940;28;20118;-72
2023/06/16 12:55:03;;;;;;;3.03;1.60;;;;;;;;;;4861922;28;20143;-70
2023/06/16 12:57:29;;;;;;;3.63;1.77;;;;;;;;;;4861900;28;20732;-72
2023/06/16 12:59:55;;;;;;;4.55;1.92;;;;;;;;;;4860454;28;20061;-74
2023/06/16 13:02:22;;;;;;;4.68;1.90;;;;;;;;;;4861455;28;20183;-72
2023/06/16 13:04:47;;;;;;;2.42;1.60;;;;;;;;;;4860985;28;20047;-71
2023/06/16 13:07:12;;;;;;;3.75;1.60;;;;;;;;;;4860102;28;21749;-71
2023/06/16 13:09:38;;;;;;;3.45;1.80;;;;;;;;;;4861316;28;20567;-74
2023/06/16 13:12:04;;;;;;;2.15;1.45;;;;;;;;;;4860985;28;21760;-74
2023/06/16 13:14:32;;;;;;;5.65;1.60;;;;;;;;;;4859384;28;20051;-72
2023/06/16 13:16:57;;;;;;;4.57;1.85;;;;;;;;;;4876546;28;20418;-71
2023/06/16 13:19:22;;;;;;;4.68;2.08;;;;;;;;;;4863861;28;20041;-73
2023/06/16 13:21:47;;;;;;;2.88;1.90;;;;;;;;;;4876330;28;21877;-71
2023/06/16 13:24:13;;;;;;;2.40;1.48;;;;;;;;;;4845774;28;20120;-73
2023/06/16 13:26:39;;;;;;;3.33;1.80;;;;;;;;;;4860552;28;20138;-73
2023/06/16 13:29:05;;;;;;;3.70;1.88;;;;;;;;;;4858539;28;20111;-69
2023/06/16 13:31:30;;;;;;;4.47;2.00;;;;;;;;;;4875703;28;20040;-69
2023/06/16 13:33:55;;;;;;;4.22;1.90;;;;;;;;;;4861249;28;20091;-68
2023/06/16 13:36:21;;;;;;;3.05;1.67;;;;;;;;;;4860911;28;20053;-73
2023/06/16 13:38:50;;;;;;;3.38;1.90;;;;;;;;;;4858390;28;20045;-71
2023/06/16 13:41:16;;;;;;;2.47;1.65;;;;;;;;;;4859860;28;20124;-71
2023/06/16 13:43:42;;;;;;;2.85;1.65;;;;;;;;;;4858686;28;20051;-67
2023/06/16 13:46:07;;;;;;;3.53;1.58;;;;;;;;;;4859036;28;20041;-69
2023/06/16 13:48:32;;;;;;;5.47;1.70;;;;;;;;;;4860222;28;20136;-70
2023/06/16 13:51:03;;;;;;;3.15;1.70;;;;;;;;;;4856995;28;20463;-68
2023/06/16 13:53:29;;;;;;;5.15;1.92;;;;;;;;;;4873141;28;20043;-70
2023/06/16 13:55:54;;;;;;;5.47;1.80;;;;;;;;;;4864969;28;20550;-71
2023/06/16 13:58:22;;;;;;;4.25;1.60;;;;;;;;;;4860452;28;20391;-71
2023/06/16 14:00:47;;;;;;;3.45;1.80;;;;;;;;;;4876219;28;20037;-71
2023/06/16 14:03:13;;;;;;;2.08;1.40;;;;;;;;;;4862137;29;20041;-70
2023/06/16 14:05:41;;;;;;;5.18;2.05;;;;;;;;;;4861961;28;20048;-70
2023/06/16 14:08:14;;;;;;;3.22;1.40;;;;;;;;;;4861340;28;20165;-71
2023/06/16 14:10:39;;;;;;;3.20;1.73;;;;;;;;;;4863169;28;20116;-73
2023/06/16 14:13:05;;;;;;;3.92;1.80;;;;;;;;;;4924294;28;20437;-72
2023/06/16 14:15:35;;;;;;;2.72;1.58;;;;;;;;;;4862263;28;20594;-70
2023/06/16 14:18:01;;;;;;;;;;;;;;;;;;4862287;28;20298;-69
2023/06/16 14:20:27;;;;;;;3.80;1.90;;;;;;;;;;4879159;28;20327;-72
2023/06/16 14:22:52;;;;;;;3.03;1.63;;;;;;;;;;4924887;28;20072;-72
2023/06/16 14:25:18;;;;;;;3.88;1.70;;;;;;;;;;4876387;28;20044;-71
2023/06/16 14:27:48;;;;;;;4.80;1.80;;;;;;;;;;4863251;28;20043;-70
2023/06/16 14:30:14;;;;;;;3.97;1.80;;;;;;;;;;4863270;28;20079;-71
2023/06/16 14:32:40;;;;;;;3.58;1.90;;;;;;;;;;4860804;28;20044;-71
2023/06/16 14:35:05;;;;;;;2.95;1.52;;;;;;;;;;4864831;28;20052;-72
2023/06/16 14:37:31;;;;;;;2.97;1.83;;;;;;;;;;4856740;28;20052;-71